createdAt,value
2019-03-11T00:01:37.963Z,1.80
2019-03-11T00:04:07.523Z,3.83
2019-03-11T00:06:37.072Z,1.60
2019-03-11T00:09:06.562Z,1.40
2019-03-11T00:11:35.514Z,1.50
2019-03-11T00:14:04.567Z,2.62
2019-03-11T00:16:33.500Z,2.60
2019-03-11T00:19:02.498Z,2.20
2019-03-11T00:21:31.322Z,1.75
2019-03-11T00:24:00.195Z,2.85
2019-03-11T00:26:29.058Z,1.50
2019-03-11T00:28:57.870Z,1.30
2019-03-11T00:31:26.741Z,1.27
2019-03-11T00:33:55.706Z,0.90
2019-03-11T00:36:24.567Z,1.87
2019-03-11T00:38:53.448Z,2.90
2019-03-11T00:41:22.305Z,1.20
2019-03-11T00:43:52.652Z,1.70
2019-03-11T00:46:21.557Z,1.20
2019-03-11T00:48:51.921Z,1.57
2019-03-11T00:51:20.805Z,1.47
2019-03-11T00:53:49.686Z,2.85
2019-03-11T00:56:18.615Z,2.60
2019-03-11T00:58:47.453Z,1.22
2019-03-11T01:01:16.423Z,2.02
2019-03-11T01:03:45.339Z,1.55
2019-03-11T01:06:14.229Z,2.20
2019-03-11T01:08:43.121Z,1.55
2019-03-11T01:11:11.956Z,1.45
2019-03-11T01:13:40.756Z,1.27
2019-03-11T01:16:09.631Z,1.60
2019-03-11T01:18:38.540Z,1.07
2019-03-11T01:21:07.436Z,1.35
2019-03-11T01:23:36.244Z,2.45
2019-03-11T01:26:05.018Z,1.90
2019-03-11T01:28:33.876Z,0.98
2019-03-11T01:31:02.717Z,1.47
2019-03-11T01:33:31.652Z,1.50
2019-03-11T01:36:00.580Z,2.20
2019-03-11T01:38:29.549Z,2.95
2019-03-11T01:40:58.403Z,2.08
2019-03-11T01:43:27.246Z,1.57
2019-03-11T01:45:56.078Z,1.20
2019-03-11T01:48:25.010Z,1.70
2019-03-11T01:50:53.922Z,1.98
2019-03-11T01:53:22.866Z,3.55
2019-03-11T01:55:51.653Z,1.87
2019-03-11T01:58:20.416Z,1.85
2019-03-11T02:00:49.195Z,5.28
2019-03-11T02:03:18.056Z,2.22
2019-03-11T02:05:46.916Z,1.90
2019-03-11T02:08:15.773Z,1.05
2019-03-11T02:10:44.680Z,2.35
2019-03-11T02:13:13.628Z,2.17
2019-03-11T02:15:42.513Z,1.60
2019-03-11T02:18:11.403Z,1.17
2019-03-11T02:20:40.277Z,1.50
2019-03-11T02:23:09.163Z,1.60
2019-03-11T02:25:38.073Z,1.17
2019-03-11T02:28:06.964Z,1.40
2019-03-11T02:30:35.833Z,1.37
2019-03-11T02:33:04.770Z,1.55
2019-03-11T02:35:33.612Z,1.00
2019-03-11T02:38:02.508Z,4.30
2019-03-11T02:40:31.355Z,1.72
2019-03-11T02:43:00.255Z,2.05
2019-03-11T02:45:29.131Z,2.22
2019-03-11T02:47:57.918Z,1.35
2019-03-11T02:50:26.849Z,1.30
2019-03-11T02:52:55.828Z,1.47
2019-03-11T02:55:24.689Z,1.55
2019-03-11T02:57:53.592Z,1.57
2019-03-11T03:00:22.533Z,1.25
2019-03-11T03:03:13.387Z,3.02
2019-03-11T03:05:48.441Z,1.22
2019-03-11T03:08:17.358Z,1.95
2019-03-11T03:10:46.202Z,2.08
2019-03-11T03:13:14.979Z,2.70
2019-03-11T03:15:43.863Z,3.08
2019-03-11T03:18:12.669Z,2.05
2019-03-11T03:20:41.610Z,3.05
2019-03-11T03:23:10.461Z,1.30
2019-03-11T03:25:39.355Z,2.92
2019-03-11T03:28:08.350Z,1.30
2019-03-11T03:30:37.170Z,0.98
2019-03-11T03:33:05.971Z,1.25
2019-03-11T03:35:34.786Z,1.42
2019-03-11T03:38:03.665Z,2.08
2019-03-11T03:40:32.518Z,2.83
2019-03-11T03:43:01.481Z,2.37
2019-03-11T03:45:32.452Z,2.92
2019-03-11T03:48:01.624Z,1.22
2019-03-11T03:50:32.227Z,1.55
2019-03-11T03:53:01.176Z,2.08
2019-03-11T03:55:30.098Z,1.00
2019-03-11T03:57:59.010Z,2.98
2019-03-11T04:00:27.894Z,3.50
2019-03-11T04:02:56.807Z,1.60
2019-03-11T04:05:25.633Z,1.52
2019-03-11T04:07:54.465Z,2.30
2019-03-11T04:10:23.383Z,1.10
2019-03-11T04:12:52.172Z,2.12
2019-03-11T04:15:21.049Z,1.50
2019-03-11T04:17:49.950Z,1.10
2019-03-11T04:20:19.355Z,1.47
2019-03-11T04:22:48.317Z,1.62
2019-03-11T04:25:17.230Z,2.85
2019-03-11T04:27:46.098Z,1.35
2019-03-11T04:30:17.237Z,1.20
2019-03-11T04:32:46.162Z,1.32
2019-03-11T04:35:14.979Z,1.25
2019-03-11T04:37:44.001Z,1.20
2019-03-11T04:40:13.479Z,1.62
2019-03-11T04:42:42.443Z,1.12
2019-03-11T04:45:12.297Z,2.83
2019-03-11T04:47:41.142Z,1.42
2019-03-11T04:50:11.835Z,2.12
2019-03-11T04:52:40.628Z,0.82
2019-03-11T04:55:10.532Z,1.42
2019-03-11T04:57:44.063Z,2.45
2019-03-11T05:00:15.309Z,1.12
2019-03-11T05:02:44.202Z,2.75
2019-03-11T05:05:13.148Z,1.10
2019-03-11T05:07:42.020Z,1.07
2019-03-11T05:10:11.033Z,2.05
2019-03-11T05:12:39.873Z,2.67
2019-03-11T05:15:09.028Z,1.10
2019-03-11T05:17:37.852Z,3.80
2019-03-11T05:20:07.194Z,1.30
2019-03-11T05:22:36.015Z,1.10
2019-03-11T05:25:05.494Z,3.02
2019-03-11T05:27:34.392Z,1.52
2019-03-11T05:30:03.330Z,1.27
2019-03-11T05:32:32.279Z,1.50
2019-03-11T05:35:01.086Z,3.72
2019-03-11T05:37:30.008Z,2.75
2019-03-11T05:39:58.918Z,4.17
2019-03-11T05:42:27.757Z,1.72
2019-03-11T05:44:56.685Z,2.33
2019-03-11T05:47:25.643Z,3.25
2019-03-11T05:49:54.543Z,2.45
2019-03-11T05:52:23.388Z,4.03
2019-03-11T05:54:52.243Z,1.60
2019-03-11T05:57:21.143Z,2.12
2019-03-11T05:59:49.973Z,2.87
2019-03-11T06:02:18.955Z,2.87
2019-03-11T06:04:47.875Z,3.22
2019-03-11T06:07:16.865Z,2.40
2019-03-11T06:09:45.701Z,1.32
2019-03-11T06:12:14.565Z,3.02
2019-03-11T06:14:43.423Z,2.35
2019-03-11T06:17:12.350Z,3.15
2019-03-11T06:19:41.182Z,2.37
2019-03-11T06:22:25.574Z,1.10
2019-03-11T06:24:54.458Z,1.40
2019-03-11T06:27:23.212Z,1.10
2019-03-11T06:29:52.157Z,1.60
2019-03-11T06:32:21.080Z,1.55
2019-03-11T06:34:50.116Z,1.30
2019-03-11T06:37:18.968Z,2.75
2019-03-11T06:39:47.770Z,5.50
2019-03-11T06:42:16.734Z,1.42
2019-03-11T06:44:45.665Z,3.65
2019-03-11T06:47:14.442Z,1.95
2019-03-11T06:49:43.348Z,3.08
2019-03-11T06:52:12.220Z,2.10
2019-03-11T06:54:41.173Z,2.77
2019-03-11T06:57:12.576Z,2.25
2019-03-11T06:59:40.713Z,4.55
2019-03-11T07:02:09.648Z,3.22
2019-03-11T07:04:38.474Z,2.67
2019-03-11T07:07:07.421Z,2.08
2019-03-11T07:09:36.262Z,4.35
2019-03-11T07:12:05.207Z,3.70
2019-03-11T07:14:34.055Z,3.30
2019-03-11T07:17:03.228Z,5.05
2019-03-11T07:19:32.083Z,7.35
2019-03-11T07:22:00.917Z,5.58
2019-03-11T07:24:29.821Z,3.98
2019-03-11T07:26:58.755Z,4.72
2019-03-11T07:29:27.705Z,5.65
2019-03-11T07:31:56.531Z,8.73
2019-03-11T07:34:25.261Z,4.85
2019-03-11T07:36:54.074Z,6.22
2019-03-11T07:39:22.966Z,4.22
2019-03-11T07:41:52.064Z,4.30
2019-03-11T07:44:20.882Z,4.60
2019-03-11T07:46:49.806Z,4.20
2019-03-11T07:49:18.626Z,4.58
2019-03-11T07:51:47.531Z,13.45
2019-03-11T07:54:16.685Z,75.62
2019-03-11T07:56:45.520Z,46.98
2019-03-11T07:59:14.539Z,42.43
2019-03-11T08:01:43.391Z,12.90
2019-03-11T08:04:12.216Z,10.95
2019-03-11T08:06:41.157Z,12.03
2019-03-11T08:09:09.995Z,14.53
2019-03-11T08:11:38.852Z,12.45
2019-03-11T08:14:07.617Z,9.98
2019-03-11T08:16:36.592Z,11.30
2019-03-11T08:19:05.541Z,13.70
2019-03-11T08:21:34.460Z,7.87
2019-03-11T08:24:03.365Z,9.33
2019-03-11T08:26:32.315Z,6.12
2019-03-11T08:29:01.177Z,9.48
2019-03-11T08:31:30.085Z,7.90
2019-03-11T08:33:58.949Z,12.55
2019-03-11T08:36:27.777Z,6.72
2019-03-11T08:38:56.647Z,7.12
2019-03-11T08:41:25.575Z,8.00
2019-03-11T08:43:54.389Z,5.87
2019-03-11T08:46:23.122Z,6.62
2019-03-11T08:48:52.070Z,7.03
2019-03-11T08:51:20.884Z,9.73
2019-03-11T08:53:49.888Z,5.60
2019-03-11T08:56:18.883Z,7.97
2019-03-11T08:58:47.864Z,8.08
2019-03-11T09:01:16.739Z,7.83
2019-03-11T09:03:47.838Z,32.55
2019-03-11T09:06:16.340Z,7.03
2019-03-11T09:08:45.164Z,13.20
2019-03-11T09:11:14.062Z,4.90
2019-03-11T09:13:42.887Z,4.08
2019-03-11T09:16:11.791Z,6.72
2019-03-11T09:18:40.653Z,9.73
2019-03-11T09:21:09.574Z,5.12
2019-03-11T09:23:38.493Z,7.67
2019-03-11T09:26:07.396Z,4.60
2019-03-11T09:28:36.299Z,3.83
2019-03-11T09:31:05.259Z,7.17
2019-03-11T09:33:34.189Z,4.92
2019-03-11T09:36:03.065Z,5.53
2019-03-11T09:38:31.978Z,12.45
2019-03-11T09:41:01.009Z,6.05
2019-03-11T09:43:29.854Z,8.00
2019-03-11T09:45:58.701Z,10.08
2019-03-11T09:48:27.619Z,6.42
2019-03-11T09:50:58.998Z,5.60
2019-03-11T09:53:26.945Z,5.10
2019-03-11T09:55:55.767Z,5.40
2019-03-11T09:58:24.600Z,5.33
2019-03-11T10:00:53.834Z,3.17
2019-03-11T10:03:22.653Z,6.70
2019-03-11T10:05:51.545Z,4.15
2019-03-11T10:08:20.410Z,3.80
2019-03-11T10:10:49.359Z,5.70
2019-03-11T10:13:18.357Z,6.45
2019-03-11T10:15:47.153Z,2.05
2019-03-11T10:18:16.159Z,3.30
2019-03-11T10:20:45.038Z,5.75
2019-03-11T10:23:13.920Z,5.05
2019-03-11T10:25:42.887Z,5.75
2019-03-11T10:28:11.808Z,4.20
2019-03-11T10:30:40.664Z,2.27
2019-03-11T10:33:09.581Z,4.00
2019-03-11T10:35:38.496Z,2.15
2019-03-11T10:38:07.464Z,4.03
2019-03-11T10:40:36.296Z,3.30
2019-03-11T10:43:05.135Z,5.30
2019-03-11T10:45:33.947Z,7.72
2019-03-11T10:48:02.892Z,3.65
2019-03-11T10:50:31.729Z,3.95
2019-03-11T10:53:00.600Z,2.95
2019-03-11T10:55:29.441Z,3.10
2019-03-11T10:57:58.195Z,2.35
2019-03-11T11:00:27.835Z,2.92
2019-03-11T11:02:56.848Z,3.37
2019-03-11T11:05:25.717Z,3.70
2019-03-11T11:07:54.605Z,3.25
2019-03-11T11:10:23.580Z,5.33
2019-03-11T11:12:52.491Z,3.62
2019-03-11T11:15:22.170Z,2.65
2019-03-11T11:17:51.170Z,6.55
2019-03-11T11:20:20.084Z,5.05
2019-03-11T11:22:49.002Z,3.70
2019-03-11T11:25:18.657Z,9.78
2019-03-11T11:27:47.408Z,6.67
2019-03-11T11:30:18.237Z,7.08
2019-03-11T11:32:47.215Z,4.78
2019-03-11T11:35:17.012Z,13.53
2019-03-11T11:37:45.986Z,10.10
2019-03-11T11:40:17.178Z,8.65
2019-03-11T11:42:45.968Z,2.27
2019-03-11T11:45:16.605Z,3.17
2019-03-11T11:47:45.655Z,4.40
2019-03-11T11:50:16.500Z,6.45
2019-03-11T11:52:45.315Z,3.77
2019-03-11T11:55:14.505Z,4.03
2019-03-11T11:57:43.345Z,1.98
2019-03-11T12:00:15.909Z,4.80
2019-03-11T12:02:44.873Z,4.55
2019-03-11T12:05:13.725Z,5.70
2019-03-11T12:07:42.656Z,5.75
2019-03-11T12:10:13.195Z,4.97
2019-03-11T12:12:42.109Z,3.10
2019-03-11T12:15:11.011Z,2.98
2019-03-11T12:17:40.139Z,2.47
2019-03-11T12:20:11.479Z,5.95
2019-03-11T12:22:42.670Z,2.55
2019-03-11T12:25:11.316Z,2.67
2019-03-11T12:27:40.240Z,5.60
2019-03-11T12:30:12.946Z,3.98
2019-03-11T12:32:41.837Z,7.80
2019-03-11T12:35:10.898Z,3.77
2019-03-11T12:37:39.893Z,10.95
2019-03-11T12:40:09.563Z,2.92
2019-03-11T12:42:38.402Z,6.17
2019-03-11T12:45:08.767Z,4.65
2019-03-11T12:47:37.794Z,5.83
2019-03-11T12:50:07.675Z,3.90
2019-03-11T12:52:36.683Z,3.12
2019-03-11T12:55:05.616Z,3.12
2019-03-11T12:57:34.676Z,3.95
2019-03-11T13:00:03.660Z,2.92
2019-03-11T13:02:32.833Z,4.15
2019-03-11T13:05:01.830Z,4.58
2019-03-11T13:07:30.935Z,5.00
2019-03-11T13:09:59.867Z,3.95
2019-03-11T13:12:28.896Z,4.30
2019-03-11T13:14:57.803Z,3.52
2019-03-11T13:17:26.827Z,3.98
2019-03-11T13:19:56.253Z,2.80
2019-03-11T13:22:25.217Z,3.72
2019-03-11T13:24:54.140Z,3.87
2019-03-11T13:27:23.019Z,4.85
2019-03-11T13:29:52.194Z,3.17
2019-03-11T13:32:21.148Z,3.65
2019-03-11T13:34:49.935Z,2.33
2019-03-11T13:37:20.590Z,2.90
2019-03-11T13:39:49.685Z,2.62
2019-03-11T13:42:18.765Z,3.00
2019-03-11T13:44:47.695Z,3.52
2019-03-11T13:47:16.587Z,2.60
2019-03-11T13:49:45.584Z,5.35
2019-03-11T13:52:20.388Z,2.33
2019-03-11T13:54:49.344Z,4.28
2019-03-11T13:57:18.276Z,1.98
2019-03-11T13:59:47.256Z,2.37
2019-03-11T14:02:16.228Z,2.50
2019-03-11T14:04:45.272Z,3.25
2019-03-11T14:07:14.268Z,2.47
2019-03-11T14:09:43.195Z,1.47
2019-03-11T14:12:12.012Z,4.17
2019-03-11T14:14:40.881Z,4.37
2019-03-11T14:17:09.726Z,6.22
2019-03-11T14:19:38.907Z,2.60
2019-03-11T14:22:07.885Z,2.90
2019-03-11T14:24:36.939Z,3.75
2019-03-11T14:27:05.330Z,3.42
2019-03-11T14:29:34.321Z,5.55
2019-03-11T14:32:03.389Z,2.12
2019-03-11T14:34:32.503Z,8.15
2019-03-11T14:37:01.423Z,4.28
2019-03-11T14:39:30.609Z,2.87
2019-03-11T14:41:59.533Z,2.45
2019-03-11T14:44:28.568Z,3.67
2019-03-11T14:46:57.624Z,2.90
2019-03-11T14:49:26.601Z,2.95
2019-03-11T14:51:55.685Z,3.10
2019-03-11T14:54:24.990Z,5.30
2019-03-11T14:56:53.933Z,4.45
2019-03-11T14:59:22.902Z,3.20
2019-03-11T15:01:51.902Z,1.87
2019-03-11T15:04:20.814Z,2.15
2019-03-11T15:06:49.943Z,6.90
2019-03-11T15:09:18.896Z,3.20
2019-03-11T15:11:48.134Z,4.53
2019-03-11T15:14:17.232Z,5.30
2019-03-11T15:16:46.212Z,3.58
2019-03-11T15:19:15.155Z,3.42
2019-03-11T15:21:44.198Z,2.90
2019-03-11T15:24:13.240Z,4.58
2019-03-11T15:26:42.072Z,2.83
2019-03-11T15:29:11.036Z,4.45
2019-03-11T15:31:40.047Z,3.50
2019-03-11T15:34:09.068Z,4.33
2019-03-11T15:36:38.111Z,4.97
2019-03-11T15:39:07.219Z,4.90
2019-03-11T15:41:36.171Z,5.85
2019-03-11T15:44:06.030Z,3.27
2019-03-11T15:46:39.231Z,3.67
2019-03-11T15:49:05.775Z,4.05
2019-03-11T15:51:36.802Z,8.20
2019-03-11T15:54:05.372Z,2.92
2019-03-11T15:56:34.668Z,3.67
2019-03-11T15:59:03.752Z,3.42
2019-03-11T16:01:32.735Z,3.75
2019-03-11T16:04:01.745Z,5.03
2019-03-11T16:06:30.709Z,3.95
2019-03-11T16:09:02.025Z,4.37
2019-03-11T16:11:30.670Z,4.42
2019-03-11T16:13:59.783Z,3.83
2019-03-11T16:16:28.731Z,4.97
2019-03-11T16:18:57.742Z,4.22
2019-03-11T16:21:26.737Z,4.15
2019-03-11T16:23:55.884Z,10.40
2019-03-11T16:26:25.048Z,4.08
2019-03-11T16:28:54.626Z,5.08
2019-03-11T16:31:23.710Z,6.40
2019-03-11T16:33:52.774Z,5.10
2019-03-11T16:36:21.922Z,4.25
2019-03-11T16:38:51.398Z,3.75
2019-03-11T16:41:20.538Z,3.00
2019-03-11T16:43:49.712Z,6.25
2019-03-11T16:46:19.467Z,8.78
2019-03-11T16:48:49.314Z,3.47
2019-03-11T16:51:18.279Z,3.95
2019-03-11T16:53:47.764Z,4.50
2019-03-11T16:56:16.741Z,2.85
2019-03-11T16:58:46.390Z,5.78
2019-03-11T17:01:15.760Z,6.67
2019-03-11T17:03:44.782Z,8.13
2019-03-11T17:06:14.572Z,3.37
2019-03-11T17:08:44.027Z,3.80
2019-03-11T17:11:13.211Z,4.75
